Latest Coastal Weather Observations for Kowanyama

IDQ60701

Issued at 3:15 pm EST Friday 25 July 2014 (issued every 10 minutes, with the page automatically refreshed every 10 minutes)

About coastal observations | Map of coastal stations | Coastal observations for QLD | Marine services | Other Formats
Station Details ID: 029038 Name: KOWANYAMA AIRPORT Lat: -15.48 Lon: 141.75 Height: 9.6 m
Data from the previous 72 hours. | See also: Recent months at Kowanyama
Date/Time
EST
Temp

°C
Wind Pressure Rain
since 9am
mm
Weather Cloud Vis
km
Sea
Height
m
Swell
Dir
 
Speed
knots
Gust
knots
hPa Trend Height
m
Period
s
Dir
25/03:00pm 27.7 E 9 14 1015.8 - 0.0 - - - - - - -
25/02:30pm 28.4 E 10 14 1016.0 - 0.0 - - - - - - -
25/02:00pm 27.6 E 8 11 1016.5 - 0.0 - Partly cloudy - - - - -
25/01:30pm 28.1 ENE 7 13 1016.8 - 0.0 - Partly cloudy - - - - -
25/01:00pm 28.3 E 8 14 1017.3 - 0.0 - Partly cloudy - - - - -
25/12:30pm 27.4 ESE 7 10 1017.7 - 0.0 - Cloudy - - - - -
25/12:00pm 27.4 SE 8 12 1017.9 - 0.0 - Mostly cloudy - - - - -
25/11:30am 27.9 E 9 15 1018.3 - 0.0 - - - - - - -
25/11:00am 26.8 ESE 8 14 1018.4 - 0.0 - - - - - - -
25/10:30am 25.6 SE 9 12 1018.8 - 0.0 - Partly cloudy - - - - -
25/10:00am 24.5 E 8 11 1019.1 - 0.0 - Partly cloudy - - - - -
25/09:30am 23.7 ESE 8 11 1019.0 - 0.0 - - - - - - -
25/09:00am 22.8 ESE 7 10 1018.5 - 0.0 - - - - - - -
25/08:30am 21.6 ESE 5 8 1018.4 - 0.0 - - - - - - -
25/08:00am 19.7 CALM 0 0 1018.1 - 0.0 - - - - - - -
25/07:30am 18.6 CALM 0 0 1017.8 - 0.0 - - - - - - -
25/07:00am 18.7 SE 3 4 1017.5 - 0.0 - - - - - - -
25/06:30am 18.0 SSE 4 5 1017.1 - 0.0 - - - - - - -
25/06:00am 18.6 S 3 4 1016.7 - 0.0 - Mostly clear - - - - -
25/05:30am 18.0 CALM 0 0 1016.6 - 0.0 - - - - - - -
25/05:00am 17.8 CALM 0 0 1016.6 - 0.0 - - - - - - -
25/04:30am 18.0 CALM 0 0 1016.4 - 0.0 - - - - - - -
25/04:00am 18.5 CALM 0 0 1016.5 - 0.0 - - - - - - -
25/03:30am 19.5 E 1 4 1016.4 - 0.0 - - - - - - -
25/03:00am 21.3 E 3 4 1016.4 - 0.0 - - - - - - -
25/02:30am 22.0 E 5 7 1016.6 - 0.0 - - - - - - -
25/02:00am 21.4 SE 3 6 1016.5 - 0.0 - - - - - - -
25/01:30am 22.4 NE 3 7 1016.6 - 0.0 - Partly cloudy - - - - -
25/01:00am 21.2 ESE 2 4 1016.6 - 0.0 - - - - - - -
25/12:30am 21.5 CALM 0 0 1016.6 - 0.0 - - - - - - -
25/12:00am 21.3 SSW 2 4 1016.4 - 0.0 - Mostly clear - - - - -
 
Date/Time
EST
Temp

°C
Wind Pressure Rain
since 9am
mm
Weather Cloud Vis
km
Sea
Height
m
Swell
Dir
 
Speed
knots
Gust
knots
hPa Trend Height
m
Period
s
Dir
24/11:30pm 21.3 CALM 0 0 1016.6 - 0.0 - Partly cloudy - - - - -
24/11:00pm 21.9 CALM 0 0 1016.6 - 0.0 - Partly cloudy - - - - -
24/10:30pm 22.0 CALM 0 0 1016.6 - 0.0 - Partly cloudy - - - - -
24/10:00pm 21.8 SW 2 5 1016.5 - 0.0 - - - - - - -
24/09:30pm 21.5 S 3 5 1016.5 - 0.0 - - - - - - -
24/09:00pm 21.9 SSW 1 4 1016.0 - 0.0 - Partly cloudy - - - - -
24/08:30pm 21.8 SSW 4 5 1015.7 - 0.0 - Partly cloudy - - - - -
24/08:00pm 22.2 SSW 3 5 1015.4 - 0.0 - Partly cloudy - - - - -
24/07:30pm 23.2 SW 4 5 1015.1 - 0.0 - Partly cloudy - - - - -
24/07:00pm 24.3 SW 7 10 1014.6 - 0.0 - Partly cloudy - - - - -
24/06:30pm 25.7 E 2 4 1014.1 - 0.0 - Partly cloudy - - - - -
24/06:00pm 27.9 E 4 5 1013.7 - 0.0 - Mostly clear - - - - -
24/05:30pm 28.3 E 4 8 1013.4 - 0.0 - Partly cloudy - - - - -
24/05:00pm 29.5 E 5 9 1013.2 - 0.0 - Partly cloudy - - - - -
24/04:30pm 29.1 ENE 7 10 1013.2 - 0.0 - - - - - - -
24/04:00pm 28.6 ENE 8 11 1013.2 - 0.0 - - - - - - -
24/03:30pm 30.3 E 5 9 1013.1 - 0.0 - Partly cloudy - - - - -
24/03:00pm 29.1 E 10 13 1013.2 - 0.0 - Mostly clear - - - - -
24/02:30pm 29.6 NE 7 13 1013.5 - 0.0 - Partly cloudy - - - - -
24/02:00pm 29.2 ESE 8 15 1013.9 - 0.0 - Partly cloudy - - - - -
24/01:30pm 28.8 ESE 7 12 1014.3 - 0.0 - Partly cloudy - - - - -
24/01:00pm 29.6 ENE 7 11 1015.0 - 0.0 - Partly cloudy - - - - -
24/12:30pm 28.4 ENE 7 12 1015.5 - 0.0 - - - - - - -
24/12:00pm 27.7 NE 7 12 1015.8 - 0.0 - - - - - - -
24/11:30am 26.9 NE 8 12 1016.3 - 0.0 - - - - - - -
24/11:00am 25.9 NE 8 14 1016.4 - 0.0 - - - - - - -
24/10:30am 25.2 NE 9 13 1016.5 - 0.0 - - - - - - -
24/10:00am 24.1 E 9 14 1016.7 - 0.0 - - - - - - -
24/09:30am 22.4 ENE 9 14 1016.8 - 0.0 - - - - - - -
24/09:00am 21.6 E 7 11 1016.8 - 0.0 - - - - - - -
24/08:30am 20.5 E 3 6 1016.6 - 0.0 - - - - - - -
24/08:00am 17.3 CALM 0 0 1016.2 - 0.0 - - - - - - -
24/07:30am 15.5 CALM 0 0 1015.7 - 0.0 - - - - - - -
24/07:00am 15.3 CALM 0 0 1015.3 - 0.0 - - - - - - -
24/06:30am 15.8 CALM 0 0 1015.0 - 0.0 - - - - - - -
24/06:00am 16.1 CALM 0 1 1014.7 - 0.0 - - - - - - -
24/05:30am 16.5 CALM 0 0 1014.6 - 0.0 - - - - - - -
24/05:00am 17.6 NE 3 4 1014.5 - 0.0 - Cloudy - - - - -
24/04:30am 17.5 NE 3 4 1014.4 - 0.0 - Partly cloudy - - - - -
24/04:00am 17.4 NNE 1 4 1014.3 - 0.0 - - - - - - -
24/03:30am 17.5 E 1 3 1014.3 - 0.0 - - - - - - -
24/03:00am 18.0 NE 3 5 1014.1 - 0.0 - - - - - - -
24/02:30am 18.3 NE 4 5 1014.5 - 0.0 - Partly cloudy - - - - -
24/02:00am 19.1 E 1 3 1014.7 - 0.0 - Partly cloudy - - - - -
24/01:30am 20.3 E 2 4 1015.0 - 0.0 - Partly cloudy - - - - -
24/01:00am 20.8 E 4 6 1015.2 - 0.0 - Partly cloudy - - - - -
24/12:30am 20.6 SE 5 6 1015.1 - 0.0 - Cloudy - - - - -
24/12:00am 20.9 E 4 5 1015.0 - 0.0 - Cloudy - - - - -
 
Date/Time
EST
Temp

°C
Wind Pressure Rain
since 9am
mm
Weather Cloud Vis
km
Sea
Height
m
Swell
Dir
 
Speed
knots
Gust
knots
hPa Trend Height
m
Period
s
Dir
23/11:30pm 21.1 SE 5 6 1014.9 - 0.0 - Cloudy - - - - -
23/11:00pm 20.9 SSE 5 7 1015.0 - 0.0 - Cloudy - - - - -
23/10:30pm 20.8 S 5 8 1014.8 - 0.0 - Cloudy - - - - -
23/10:00pm 21.0 S 5 7 1014.9 - 0.0 - Cloudy - - - - -
23/09:30pm 21.0 SSW 5 6 1014.7 - 0.0 - Cloudy - - - - -
23/09:00pm 20.9 SSW 4 5 1014.4 - 0.0 - Partly cloudy - - - - -
23/08:30pm 21.0 SSW 4 5 1014.3 - 0.0 - Cloudy - - - - -
23/08:00pm 21.4 SSW 4 6 1014.0 - 0.0 - Partly cloudy - - - - -
23/07:30pm 21.9 SW 6 7 1013.7 - 0.0 - Partly cloudy - - - - -
23/07:00pm 22.9 SW 7 9 1013.4 - 0.0 - Partly cloudy - - - - -
23/06:30pm 23.9 SW 8 12 1013.1 - 0.0 - Partly cloudy - - - - -
23/06:00pm 25.6 W 7 10 1012.7 - 0.0 - Partly cloudy - - - - -
23/05:30pm 28.7 E 3 4 1012.5 - 0.0 - Partly cloudy - - - - -
23/05:00pm 28.0 E 6 9 1012.2 - 0.0 - Partly cloudy - - - - -
23/04:30pm 28.5 E 3 6 1012.1 - 0.0 - Partly cloudy - - - - -
23/04:00pm 28.9 ESE 6 11 1012.2 - 0.0 - Partly cloudy - - - - -
23/03:30pm 29.8 E 5 10 1012.0 - 0.0 - Partly cloudy - - - - -
23/03:00pm 30.1 S 3 6 1012.1 - 0.0 - Mostly clear - - - - -
23/02:30pm 28.2 ESE 8 14 1012.6 - 0.0 - Partly cloudy - - - - -
23/02:00pm 28.8 E 7 13 1013.0 - 0.0 - Partly cloudy - - - - -
23/01:30pm 28.2 SE 10 13 1013.6 - 0.0 - Partly cloudy - - - - -
23/01:00pm 27.3 E 6 9 1014.1 - 0.0 - Partly cloudy - - - - -
23/12:30pm 26.5 E 6 10 1014.7 - 0.0 - - - - - - -
23/12:00pm 27.4 ENE 6 11 1015.1 - 0.0 - - - - - - -
23/11:30am 27.2 NE 8 13 1015.8 - 0.0 - - - - - - -
23/11:00am 26.0 ENE 8 14 1016.4 - 0.0 - - - - - - -
23/10:30am 25.3 NNE 8 11 1016.9 - 0.0 - - - - - - -
23/10:00am 24.2 ENE 7 12 1017.3 - 0.0 - - - - - - -
23/09:30am 22.6 NE 8 13 1017.4 - 0.0 - - - - - - -
23/09:00am 21.2 ENE 7 11 1017.2 - 0.0 - - - - - - -
23/08:30am 19.5 NE 3 5 1017.1 - 0.0 - - - - - - -
23/08:00am 17.3 CALM 0 3 1016.8 - 0.0 - - - - - - -
23/07:30am 13.7 CALM 0 0 1016.5 - 0.0 - - - - - - -
23/07:00am 13.8 ENE 1 3 1016.3 - 0.0 - - - - - - -
23/06:30am 13.2 E 3 3 1016.0 - 0.0 - - - - - - -
23/06:00am 13.2 CALM 0 0 1015.6 - 0.0 - - - - - - -
23/05:30am 13.6 CALM 0 0 1015.3 - 0.0 - - - - - - -
23/05:00am 13.6 CALM 0 0 1015.4 - 0.0 - - - - - - -
23/04:30am 14.1 ESE 1 4 1015.4 - 0.0 - - - - - - -
23/04:00am 14.3 CALM 0 0 1015.3 - 0.0 - - - - - - -
23/03:30am 15.3 CALM 0 2 1015.6 - 0.0 - - - - - - -
23/03:00am 15.6 NNE 3 4 1015.7 - 0.0 - - - - - - -
23/02:30am 16.0 NNE 4 5 1015.8 - 0.0 - - - - - - -
23/02:00am 16.2 NE 4 4 1016.1 - 0.0 - - - - - - -
23/01:30am 16.5 NE 4 5 1016.1 - 0.0 - - - - - - -
23/01:00am 16.7 ENE 5 6 1016.2 - 0.0 - - - - - - -
23/12:30am 16.7 ENE 5 6 1016.2 - 0.0 - - - - - - -
23/12:00am 16.8 NE 6 8 1016.1 - 0.0 - - - - - - -
 
Date/Time
EST
Temp

°C
Wind Pressure Rain
since 9am
mm
Weather Cloud Vis
km
Sea
Height
m
Swell
Dir
 
Speed
knots
Gust
knots
hPa Trend Height
m
Period
s
Dir
22/11:30pm 17.9 E 6 7 1015.9 - 0.0 - - - - - - -
22/11:00pm 17.3 ESE 1 4 1015.8 - 0.0 - - - - - - -
22/10:30pm 17.7 SE 1 3 1015.7 - 0.0 - - - - - - -
22/10:00pm 18.3 SSW 4 4 1015.7 - 0.0 - - - - - - -
22/09:30pm 18.9 SW 4 5 1015.6 - 0.0 - - - - - - -
22/09:00pm 19.5 SW 5 6 1015.5 - 0.0 - - - - - - -
22/08:30pm 19.6 WSW 5 6 1015.6 - 0.0 - - - - - - -
22/08:00pm 20.2 NW 3 4 1015.6 - 0.0 - - - - - - -
22/07:30pm 21.4 WSW 6 7 1015.0 - 0.0 - - - - - - -
22/07:00pm 22.2 SW 7 10 1014.4 - 0.0 - Partly cloudy - - - - -
22/06:30pm 22.8 SW 7 9 1014.0 - 0.0 - Partly cloudy - - - - -
22/06:00pm 24.4 WSW 8 11 1013.7 - 0.0 - - - - - - -
22/05:30pm 25.7 W 10 12 1013.5 - 0.0 - - - - - - -
22/05:00pm 26.9 W 9 12 1013.2 - 0.0 - - - - - - -
22/04:30pm 28.6 SW 8 11 1013.1 - 0.0 - - - - - - -
22/04:00pm 30.1 E 5 10 1013.0 - 0.0 - - - - - - -
22/03:30pm 29.3 ESE 7 12 1013.1 - 0.0 - - - - - - -

Other Formats:

Comma delimited format used in spreadsheet applications
http://www.bom.gov.au/fwo/IDQ60701/IDQ60701.94268.axf

JavaScript Object Notation format (JSON) in row-major order
http://www.bom.gov.au/fwo/IDQ60701/IDQ60701.94268.json